sensor_id;sensor_type;location;lat;lon;timestamp;P1;durP1;ratioP1;P2;durP2;ratioP2
57846;SDS011;43675;50.030;21.952;2023-05-16T00:02:14;31.30;;;28.50;;
57846;SDS011;43675;50.030;21.952;2023-05-16T00:04:40;31.40;;;28.50;;
57846;SDS011;43675;50.030;21.952;2023-05-16T00:07:07;32.20;;;29.20;;
57846;SDS011;43675;50.030;21.952;2023-05-16T00:09:33;32.80;;;29.50;;
57846;SDS011;43675;50.030;21.952;2023-05-16T00:12:00;31.60;;;28.50;;
57846;SDS011;43675;50.030;21.952;2023-05-16T00:14:26;33.10;;;29.70;;
57846;SDS011;43675;50.030;21.952;2023-05-16T00:16:53;33.20;;;29.60;;
57846;SDS011;43675;50.030;21.952;2023-05-16T00:19:20;32.60;;;29.40;;
57846;SDS011;43675;50.030;21.952;2023-05-16T00:21:46;34.60;;;30.90;;
57846;SDS011;43675;50.030;21.952;2023-05-16T00:24:13;34.10;;;30.80;;
57846;SDS011;43675;50.030;21.952;2023-05-16T00:26:39;34.50;;;31.00;;
57846;SDS011;43675;50.030;21.952;2023-05-16T00:29:06;34.30;;;30.80;;
57846;SDS011;43675;50.030;21.952;2023-05-16T00:31:32;34.00;;;30.30;;
57846;SDS011;43675;50.030;21.952;2023-05-16T00:33:59;34.40;;;30.90;;
57846;SDS011;43675;50.030;21.952;2023-05-16T00:36:26;34.60;;;31.10;;
57846;SDS011;43675;50.030;21.952;2023-05-16T00:38:52;35.10;;;31.70;;
57846;SDS011;43675;50.030;21.952;2023-05-16T00:41:19;34.70;;;31.40;;
57846;SDS011;43675;50.030;21.952;2023-05-16T00:43:45;34.90;;;31.40;;
57846;SDS011;43675;50.030;21.952;2023-05-16T00:46:12;34.70;;;31.30;;
57846;SDS011;43675;50.030;21.952;2023-05-16T00:48:39;36.00;;;32.30;;
57846;SDS011;43675;50.030;21.952;2023-05-16T00:51:05;35.80;;;32.30;;
57846;SDS011;43675;50.030;21.952;2023-05-16T00:53:32;35.50;;;32.10;;
57846;SDS011;43675;50.030;21.952;2023-05-16T00:55:58;34.70;;;31.30;;
57846;SDS011;43675;50.030;21.952;2023-05-16T00:58:25;34.60;;;31.00;;
57846;SDS011;43675;50.030;21.952;2023-05-16T01:00:53;35.70;;;31.80;;
57846;SDS011;43675;50.030;21.952;2023-05-16T01:03:20;33.30;;;38.60;;
57846;SDS011;43675;50.030;21.952;2023-05-16T01:05:47;34.70;;;31.10;;
57846;SDS011;43675;50.030;21.952;2023-05-16T01:08:14;35.20;;;31.60;;
57846;SDS011;43675;50.030;21.952;2023-05-16T01:10:48;36.10;;;32.30;;
57846;SDS011;43675;50.030;21.952;2023-05-16T01:13:28;35.90;;;32.30;;
57846;SDS011;43675;50.030;21.952;2023-05-16T01:16:07;37.00;;;33.20;;
57846;SDS011;43675;50.030;21.952;2023-05-16T01:24:42;39.20;;;34.10;;
57846;SDS011;43675;50.030;21.952;2023-05-16T01:27:15;41.30;;;36.80;;
57846;SDS011;43675;50.030;21.952;2023-05-16T01:29:42;44.30;;;37.50;;
57846;SDS011;43675;50.030;21.952;2023-05-16T01:32:08;45.70;;;37.20;;
57846;SDS011;43675;50.030;21.952;2023-05-16T01:34:35;43.30;;;37.50;;
57846;SDS011;43675;50.030;21.952;2023-05-16T01:37:07;46.30;;;38.70;;
57846;SDS011;43675;50.030;21.952;2023-05-16T01:42:43;47.30;;;39.60;;
57846;SDS011;43675;50.030;21.952;2023-05-16T01:45:14;57.20;;;43.00;;
57846;SDS011;43675;50.030;21.952;2023-05-16T01:47:51;48.70;;;41.50;;
57846;SDS011;43675;50.030;21.952;2023-05-16T01:50:23;52.40;;;43.80;;
57846;SDS011;43675;50.030;21.952;2023-05-16T01:52:55;56.40;;;43.90;;
57846;SDS011;43675;50.030;21.952;2023-05-16T01:55:31;54.10;;;42.50;;
57846;SDS011;43675;50.030;21.952;2023-05-16T01:58:04;57.40;;;43.40;;
57846;SDS011;43675;50.030;21.952;2023-05-16T02:00:33;55.00;;;44.40;;
57846;SDS011;43675;50.030;21.952;2023-05-16T02:03:00;54.10;;;47.00;;
57846;SDS011;43675;50.030;21.952;2023-05-16T02:05:27;64.80;;;47.40;;
57846;SDS011;43675;50.030;21.952;2023-05-16T02:07:53;59.00;;;46.50;;
57846;SDS011;43675;50.030;21.952;2023-05-16T02:10:21;59.60;;;47.40;;
57846;SDS011;43675;50.030;21.952;2023-05-16T02:12:49;61.10;;;46.70;;
57846;SDS011;43675;50.030;21.952;2023-05-16T02:15:16;60.40;;;47.90;;
57846;SDS011;43675;50.030;21.952;2023-05-16T02:17:43;66.10;;;48.80;;
57846;SDS011;43675;50.030;21.952;2023-05-16T02:20:10;67.20;;;47.00;;
57846;SDS011;43675;50.030;21.952;2023-05-16T02:22:37;61.20;;;46.90;;
57846;SDS011;43675;50.030;21.952;2023-05-16T02:25:04;72.80;;;47.90;;
57846;SDS011;43675;50.030;21.952;2023-05-16T02:27:32;63.70;;;48.30;;
57846;SDS011;43675;50.030;21.952;2023-05-16T02:29:58;64.40;;;49.50;;
57846;SDS011;43675;50.030;21.952;2023-05-16T02:32:25;67.70;;;48.70;;
57846;SDS011;43675;50.030;21.952;2023-05-16T02:34:52;71.70;;;50.30;;
57846;SDS011;43675;50.030;21.952;2023-05-16T02:37:18;60.50;;;47.00;;
57846;SDS011;43675;50.030;21.952;2023-05-16T02:39:45;79.20;;;47.70;;
57846;SDS011;43675;50.030;21.952;2023-05-16T02:42:11;77.50;;;49.70;;
57846;SDS011;43675;50.030;21.952;2023-05-16T02:44:38;69.90;;;47.80;;
57846;SDS011;43675;50.030;21.952;2023-05-16T02:47:05;86.20;;;49.10;;
57846;SDS011;43675;50.030;21.952;2023-05-16T02:49:31;73.20;;;46.50;;
57846;SDS011;43675;50.030;21.952;2023-05-16T02:51:58;83.60;;;49.60;;
57846;SDS011;43675;50.030;21.952;2023-05-16T02:54:24;81.70;;;50.90;;
57846;SDS011;43675;50.030;21.952;2023-05-16T02:56:51;78.70;;;50.60;;
57846;SDS011;43675;50.030;21.952;2023-05-16T02:59:17;82.30;;;49.70;;
57846;SDS011;43675;50.030;21.952;2023-05-16T03:01:44;94.90;;;50.40;;
57846;SDS011;43675;50.030;21.952;2023-05-16T03:04:10;95.90;;;49.30;;
57846;SDS011;43675;50.030;21.952;2023-05-16T03:06:37;95.80;;;50.00;;
57846;SDS011;43675;50.030;21.952;2023-05-16T03:09:03;92.50;;;51.00;;
57846;SDS011;43675;50.030;21.952;2023-05-16T03:11:30;97.40;;;50.70;;
57846;SDS011;43675;50.030;21.952;2023-05-16T03:13:56;82.70;;;50.30;;
57846;SDS011;43675;50.030;21.952;2023-05-16T03:16:23;83.90;;;50.00;;
57846;SDS011;43675;50.030;21.952;2023-05-16T03:18:49;89.90;;;49.00;;
57846;SDS011;43675;50.030;21.952;2023-05-16T03:21:16;88.40;;;49.10;;
57846;SDS011;43675;50.030;21.952;2023-05-16T03:23:42;80.60;;;49.60;;
57846;SDS011;43675;50.030;21.952;2023-05-16T03:26:09;77.90;;;49.00;;
57846;SDS011;43675;50.030;21.952;2023-05-16T03:28:36;83.90;;;48.20;;
57846;SDS011;43675;50.030;21.952;2023-05-16T03:31:02;78.30;;;48.10;;
57846;SDS011;43675;50.030;21.952;2023-05-16T03:33:29;78.80;;;47.80;;
57846;SDS011;43675;50.030;21.952;2023-05-16T03:35:55;87.90;;;48.10;;
57846;SDS011;43675;50.030;21.952;2023-05-16T03:38:22;87.50;;;46.50;;
57846;SDS011;43675;50.030;21.952;2023-05-16T03:40:49;80.50;;;45.20;;
57846;SDS011;43675;50.030;21.952;2023-05-16T03:43:15;74.70;;;43.90;;
57846;SDS011;43675;50.030;21.952;2023-05-16T03:45:42;76.20;;;45.80;;
57846;SDS011;43675;50.030;21.952;2023-05-16T03:48:08;75.10;;;46.80;;
57846;SDS011;43675;50.030;21.952;2023-05-16T03:50:35;73.60;;;48.40;;
57846;SDS011;43675;50.030;21.952;2023-05-16T03:53:01;81.50;;;48.90;;
57846;SDS011;43675;50.030;21.952;2023-05-16T03:55:28;79.80;;;49.70;;
57846;SDS011;43675;50.030;21.952;2023-05-16T03:57:55;82.20;;;52.50;;
57846;SDS011;43675;50.030;21.952;2023-05-16T04:00:21;75.40;;;49.30;;
57846;SDS011;43675;50.030;21.952;2023-05-16T04:02:48;70.40;;;49.50;;
57846;SDS011;43675;50.030;21.952;2023-05-16T04:05:14;67.00;;;46.90;;
57846;SDS011;43675;50.030;21.952;2023-05-16T04:07:41;64.30;;;47.10;;
57846;SDS011;43675;50.030;21.952;2023-05-16T04:10:08;65.20;;;45.30;;
57846;SDS011;43675;50.030;21.952;2023-05-16T04:12:35;64.00;;;47.80;;
57846;SDS011;43675;50.030;21.952;2023-05-16T04:15:03;64.40;;;46.10;;
57846;SDS011;43675;50.030;21.952;2023-05-16T04:17:30;58.30;;;46.40;;
57846;SDS011;43675;50.030;21.952;2023-05-16T04:19:57;58.30;;;45.40;;
57846;SDS011;43675;50.030;21.952;2023-05-16T04:22:24;63.00;;;45.20;;
57846;SDS011;43675;50.030;21.952;2023-05-16T04:24:51;57.40;;;43.10;;
57846;SDS011;43675;50.030;21.952;2023-05-16T04:27:18;54.20;;;43.90;;
57846;SDS011;43675;50.030;21.952;2023-05-16T04:29:44;58.20;;;45.40;;
57846;SDS011;43675;50.030;21.952;2023-05-16T04:32:11;50.60;;;43.10;;
57846;SDS011;43675;50.030;21.952;2023-05-16T04:34:37;53.80;;;44.40;;
57846;SDS011;43675;50.030;21.952;2023-05-16T04:37:04;49.40;;;42.40;;
57846;SDS011;43675;50.030;21.952;2023-05-16T04:39:30;48.90;;;41.60;;
57846;SDS011;43675;50.030;21.952;2023-05-16T04:41:57;50.20;;;43.40;;
57846;SDS011;43675;50.030;21.952;2023-05-16T04:44:27;48.30;;;43.00;;
57846;SDS011;43675;50.030;21.952;2023-05-16T04:46:53;46.70;;;41.00;;
57846;SDS011;43675;50.030;21.952;2023-05-16T04:49:20;46.90;;;41.50;;
57846;SDS011;43675;50.030;21.952;2023-05-16T04:51:47;46.20;;;41.10;;
57846;SDS011;43675;50.030;21.952;2023-05-16T04:54:14;47.80;;;40.10;;
57846;SDS011;43675;50.030;21.952;2023-05-16T04:56:41;45.10;;;40.40;;
57846;SDS011;43675;50.030;21.952;2023-05-16T04:59:07;42.30;;;37.00;;
57846;SDS011;43675;50.030;21.952;2023-05-16T05:01:34;44.40;;;39.50;;
57846;SDS011;43675;50.030;21.952;2023-05-16T05:04:00;43.50;;;38.90;;
57846;SDS011;43675;50.030;21.952;2023-05-16T05:06:27;41.40;;;36.70;;
57846;SDS011;43675;50.030;21.952;2023-05-16T05:08:53;40.00;;;35.30;;
57846;SDS011;43675;50.030;21.952;2023-05-16T05:11:20;39.40;;;35.20;;
57846;SDS011;43675;50.030;21.952;2023-05-16T05:13:46;39.80;;;35.50;;
57846;SDS011;43675;50.030;21.952;2023-05-16T05:16:13;39.60;;;35.30;;
57846;SDS011;43675;50.030;21.952;2023-05-16T05:18:39;39.20;;;35.00;;
57846;SDS011;43675;50.030;21.952;2023-05-16T05:21:06;37.00;;;33.20;;
57846;SDS011;43675;50.030;21.952;2023-05-16T05:23:32;36.20;;;32.30;;
57846;SDS011;43675;50.030;21.952;2023-05-16T05:25:59;34.70;;;31.20;;
57846;SDS011;43675;50.030;21.952;2023-05-16T05:28:25;32.10;;;28.90;;
57846;SDS011;43675;50.030;21.952;2023-05-16T05:30:52;30.60;;;27.50;;
57846;SDS011;43675;50.030;21.952;2023-05-16T05:33:19;29.40;;;25.20;;
57846;SDS011;43675;50.030;21.952;2023-05-16T05:35:51;26.20;;;23.40;;
57846;SDS011;43675;50.030;21.952;2023-05-16T05:38:17;24.90;;;22.50;;
57846;SDS011;43675;50.030;21.952;2023-05-16T05:40:44;22.80;;;20.70;;
57846;SDS011;43675;50.030;21.952;2023-05-16T05:43:11;21.50;;;19.70;;
57846;SDS011;43675;50.030;21.952;2023-05-16T05:45:37;21.40;;;19.70;;
57846;SDS011;43675;50.030;21.952;2023-05-16T05:48:04;20.60;;;18.90;;
57846;SDS011;43675;50.030;21.952;2023-05-16T05:50:31;21.70;;;19.50;;
57846;SDS011;43675;50.030;21.952;2023-05-16T05:52:58;20.50;;;18.90;;
57846;SDS011;43675;50.030;21.952;2023-05-16T05:55:24;20.50;;;18.90;;
57846;SDS011;43675;50.030;21.952;2023-05-16T05:57:51;19.80;;;18.10;;
57846;SDS011;43675;50.030;21.952;2023-05-16T06:00:17;20.20;;;18.60;;
57846;SDS011;43675;50.030;21.952;2023-05-16T06:02:44;20.20;;;18.40;;
57846;SDS011;43675;50.030;21.952;2023-05-16T06:05:11;19.40;;;17.70;;
57846;SDS011;43675;50.030;21.952;2023-05-16T06:07:37;18.90;;;17.20;;
57846;SDS011;43675;50.030;21.952;2023-05-16T06:10:04;18.70;;;17.10;;
57846;SDS011;43675;50.030;21.952;2023-05-16T06:12:31;19.10;;;17.50;;
57846;SDS011;43675;50.030;21.952;2023-05-16T06:14:57;18.90;;;17.40;;
57846;SDS011;43675;50.030;21.952;2023-05-16T06:17:24;18.60;;;17.10;;
57846;SDS011;43675;50.030;21.952;2023-05-16T06:19:50;19.10;;;17.50;;
57846;SDS011;43675;50.030;21.952;2023-05-16T06:22:17;18.40;;;16.90;;
57846;SDS011;43675;50.030;21.952;2023-05-16T06:24:43;17.60;;;15.90;;
57846;SDS011;43675;50.030;21.952;2023-05-16T06:27:10;17.20;;;15.70;;
57846;SDS011;43675;50.030;21.952;2023-05-16T06:29:37;17.70;;;16.30;;
57846;SDS011;43675;50.030;21.952;2023-05-16T06:32:03;17.70;;;16.00;;
57846;SDS011;43675;50.030;21.952;2023-05-16T06:34:30;17.70;;;16.30;;
57846;SDS011;43675;50.030;21.952;2023-05-16T06:36:57;18.00;;;16.50;;
57846;SDS011;43675;50.030;21.952;2023-05-16T06:39:23;17.00;;;15.70;;
57846;SDS011;43675;50.030;21.952;2023-05-16T06:41:50;17.50;;;16.10;;
57846;SDS011;43675;50.030;21.952;2023-05-16T06:44:17;17.40;;;15.90;;
57846;SDS011;43675;50.030;21.952;2023-05-16T06:46:43;17.80;;;16.40;;
57846;SDS011;43675;50.030;21.952;2023-05-16T06:49:10;17.10;;;15.80;;
57846;SDS011;43675;50.030;21.952;2023-05-16T06:51:36;17.90;;;16.30;;
57846;SDS011;43675;50.030;21.952;2023-05-16T06:54:03;18.00;;;16.50;;
57846;SDS011;43675;50.030;21.952;2023-05-16T06:56:29;17.90;;;16.50;;
57846;SDS011;43675;50.030;21.952;2023-05-16T06:58:56;17.00;;;15.70;;
57846;SDS011;43675;50.030;21.952;2023-05-16T07:01:23;17.50;;;16.10;;
57846;SDS011;43675;50.030;21.952;2023-05-16T07:03:49;18.00;;;16.40;;
57846;SDS011;43675;50.030;21.952;2023-05-16T07:06:16;17.90;;;16.50;;
57846;SDS011;43675;50.030;21.952;2023-05-16T07:08:42;18.30;;;16.80;;
57846;SDS011;43675;50.030;21.952;2023-05-16T07:11:09;17.90;;;16.40;;
57846;SDS011;43675;50.030;21.952;2023-05-16T07:13:35;17.90;;;16.30;;
57846;SDS011;43675;50.030;21.952;2023-05-16T07:16:02;18.10;;;16.70;;
57846;SDS011;43675;50.030;21.952;2023-05-16T07:18:29;18.30;;;16.70;;
57846;SDS011;43675;50.030;21.952;2023-05-16T07:20:56;18.10;;;16.70;;
57846;SDS011;43675;50.030;21.952;2023-05-16T07:23:22;19.60;;;18.10;;
57846;SDS011;43675;50.030;21.952;2023-05-16T07:25:49;19.90;;;18.40;;
57846;SDS011;43675;50.030;21.952;2023-05-16T07:28:16;19.60;;;17.90;;
57846;SDS011;43675;50.030;21.952;2023-05-16T07:30:42;18.50;;;17.00;;
57846;SDS011;43675;50.030;21.952;2023-05-16T07:33:09;18.20;;;16.70;;
57846;SDS011;43675;50.030;21.952;2023-05-16T07:35:35;18.50;;;16.80;;
57846;SDS011;43675;50.030;21.952;2023-05-16T07:38:02;17.70;;;16.30;;
57846;SDS011;43675;50.030;21.952;2023-05-16T07:40:28;18.00;;;16.40;;
57846;SDS011;43675;50.030;21.952;2023-05-16T07:42:55;18.00;;;16.50;;
57846;SDS011;43675;50.030;21.952;2023-05-16T07:45:21;17.70;;;16.10;;
57846;SDS011;43675;50.030;21.952;2023-05-16T07:47:48;17.20;;;15.90;;
57846;SDS011;43675;50.030;21.952;2023-05-16T07:50:14;18.80;;;17.20;;
57846;SDS011;43675;50.030;21.952;2023-05-16T07:52:41;18.50;;;16.90;;
57846;SDS011;43675;50.030;21.952;2023-05-16T07:55:08;18.00;;;16.60;;
57846;SDS011;43675;50.030;21.952;2023-05-16T07:57:34;18.50;;;17.10;;
57846;SDS011;43675;50.030;21.952;2023-05-16T08:00:01;18.70;;;17.30;;
57846;SDS011;43675;50.030;21.952;2023-05-16T08:02:28;18.80;;;17.40;;
57846;SDS011;43675;50.030;21.952;2023-05-16T08:04:55;18.90;;;17.40;;
57846;SDS011;43675;50.030;21.952;2023-05-16T08:07:22;18.00;;;16.60;;
57846;SDS011;43675;50.030;21.952;2023-05-16T08:09:49;17.70;;;16.30;;
57846;SDS011;43675;50.030;21.952;2023-05-16T08:12:16;17.70;;;16.30;;
57846;SDS011;43675;50.030;21.952;2023-05-16T08:14:42;18.10;;;16.50;;
57846;SDS011;43675;50.030;21.952;2023-05-16T08:17:09;18.60;;;17.00;;
57846;SDS011;43675;50.030;21.952;2023-05-16T08:19:35;18.10;;;16.70;;
57846;SDS011;43675;50.030;21.952;2023-05-16T08:22:02;18.40;;;16.90;;
57846;SDS011;43675;50.030;21.952;2023-05-16T08:24:29;18.40;;;16.70;;
57846;SDS011;43675;50.030;21.952;2023-05-16T08:26:55;17.70;;;16.40;;
57846;SDS011;43675;50.030;21.952;2023-05-16T08:29:22;17.80;;;16.40;;
57846;SDS011;43675;50.030;21.952;2023-05-16T08:31:48;17.40;;;16.10;;
57846;SDS011;43675;50.030;21.952;2023-05-16T08:34:15;17.50;;;16.10;;
57846;SDS011;43675;50.030;21.952;2023-05-16T08:36:41;17.60;;;16.30;;
57846;SDS011;43675;50.030;21.952;2023-05-16T08:39:08;18.40;;;16.90;;
57846;SDS011;43675;50.030;21.952;2023-05-16T08:41:34;17.80;;;16.10;;
57846;SDS011;43675;50.030;21.952;2023-05-16T08:44:01;17.90;;;16.30;;
57846;SDS011;43675;50.030;21.952;2023-05-16T08:46:29;17.90;;;16.40;;
57846;SDS011;43675;50.030;21.952;2023-05-16T08:48:59;17.50;;;16.20;;
57846;SDS011;43675;50.030;21.952;2023-05-16T08:51:26;17.80;;;16.40;;
57846;SDS011;43675;50.030;21.952;2023-05-16T08:53:59;17.20;;;16.00;;
57846;SDS011;43675;50.030;21.952;2023-05-16T08:56:28;17.60;;;16.20;;
57846;SDS011;43675;50.030;21.952;2023-05-16T08:58:57;18.10;;;16.40;;
57846;SDS011;43675;50.030;21.952;2023-05-16T09:01:24;18.40;;;16.70;;
57846;SDS011;43675;50.030;21.952;2023-05-16T09:03:51;17.90;;;16.50;;
57846;SDS011;43675;50.030;21.952;2023-05-16T09:06:18;18.20;;;16.80;;
57846;SDS011;43675;50.030;21.952;2023-05-16T09:08:45;17.80;;;16.50;;
57846;SDS011;43675;50.030;21.952;2023-05-16T09:11:11;18.00;;;16.60;;
57846;SDS011;43675;50.030;21.952;2023-05-16T09:13:38;18.00;;;16.50;;
57846;SDS011;43675;50.030;21.952;2023-05-16T09:16:14;18.00;;;16.70;;
57846;SDS011;43675;50.030;21.952;2023-05-16T09:18:42;18.00;;;16.60;;
57846;SDS011;43675;50.030;21.952;2023-05-16T09:21:10;17.70;;;16.10;;
57846;SDS011;43675;50.030;21.952;2023-05-16T09:23:38;17.70;;;16.30;;
57846;SDS011;43675;50.030;21.952;2023-05-16T09:26:04;18.30;;;16.90;;
57846;SDS011;43675;50.030;21.952;2023-05-16T09:28:31;18.20;;;16.80;;
57846;SDS011;43675;50.030;21.952;2023-05-16T09:30:57;18.10;;;16.60;;
57846;SDS011;43675;50.030;21.952;2023-05-16T09:33:27;18.00;;;16.60;;
57846;SDS011;43675;50.030;21.952;2023-05-16T09:35:55;18.30;;;16.70;;
57846;SDS011;43675;50.030;21.952;2023-05-16T09:38:23;18.20;;;16.80;;
57846;SDS011;43675;50.030;21.952;2023-05-16T09:40:51;17.70;;;16.30;;
57846;SDS011;43675;50.030;21.952;2023-05-16T09:43:19;17.60;;;16.20;;
57846;SDS011;43675;50.030;21.952;2023-05-16T09:45:48;17.90;;;16.60;;
57846;SDS011;43675;50.030;21.952;2023-05-16T09:48:15;17.90;;;16.50;;
57846;SDS011;43675;50.030;21.952;2023-05-16T09:50:47;18.00;;;16.60;;
57846;SDS011;43675;50.030;21.952;2023-05-16T09:53:25;17.90;;;16.40;;
57846;SDS011;43675;50.030;21.952;2023-05-16T09:55:59;18.50;;;16.80;;
57846;SDS011;43675;50.030;21.952;2023-05-16T09:58:44;18.30;;;17.00;;
57846;SDS011;43675;50.030;21.952;2023-05-16T10:01:11;18.20;;;16.80;;
57846;SDS011;43675;50.030;21.952;2023-05-16T10:03:38;18.20;;;16.80;;
57846;SDS011;43675;50.030;21.952;2023-05-16T10:06:07;17.90;;;16.60;;
57846;SDS011;43675;50.030;21.952;2023-05-16T10:08:34;17.50;;;16.20;;
57846;SDS011;43675;50.030;21.952;2023-05-16T10:11:03;17.40;;;16.00;;
57846;SDS011;43675;50.030;21.952;2023-05-16T10:13:32;17.50;;;16.20;;
57846;SDS011;43675;50.030;21.952;2023-05-16T10:16:10;17.60;;;16.10;;
57846;SDS011;43675;50.030;21.952;2023-05-16T10:18:38;17.80;;;16.40;;
57846;SDS011;43675;50.030;21.952;2023-05-16T10:21:14;17.00;;;15.70;;
57846;SDS011;43675;50.030;21.952;2023-05-16T10:23:44;17.60;;;16.20;;
57846;SDS011;43675;50.030;21.952;2023-05-16T10:26:15;17.60;;;16.20;;
57846;SDS011;43675;50.030;21.952;2023-05-16T10:28:42;17.10;;;15.80;;
57846;SDS011;43675;50.030;21.952;2023-05-16T10:31:09;17.00;;;15.70;;
57846;SDS011;43675;50.030;21.952;2023-05-16T10:33:37;16.60;;;15.40;;
57846;SDS011;43675;50.030;21.952;2023-05-16T10:36:05;17.50;;;16.00;;
57846;SDS011;43675;50.030;21.952;2023-05-16T10:38:33;16.60;;;15.40;;
57846;SDS011;43675;50.030;21.952;2023-05-16T10:41:01;16.80;;;15.60;;
57846;SDS011;43675;50.030;21.952;2023-05-16T10:43:28;16.40;;;15.20;;
57846;SDS011;43675;50.030;21.952;2023-05-16T10:46:02;17.30;;;15.90;;
57846;SDS011;43675;50.030;21.952;2023-05-16T10:48:36;16.50;;;15.30;;
57846;SDS011;43675;50.030;21.952;2023-05-16T10:51:33;16.60;;;15.40;;
57846;SDS011;43675;50.030;21.952;2023-05-16T10:54:04;16.60;;;15.30;;
57846;SDS011;43675;50.030;21.952;2023-05-16T10:56:33;16.20;;;15.00;;
57846;SDS011;43675;50.030;21.952;2023-05-16T10:59:01;15.50;;;14.40;;
57846;SDS011;43675;50.030;21.952;2023-05-16T11:01:34;15.30;;;14.20;;
57846;SDS011;43675;50.030;21.952;2023-05-16T11:04:02;15.60;;;14.40;;
57846;SDS011;43675;50.030;21.952;2023-05-16T11:16:52;17.20;;;16.10;;
57846;SDS011;43675;50.030;21.952;2023-05-16T11:30:13;17.20;;;15.80;;
57846;SDS011;43675;50.030;21.952;2023-05-16T11:32:42;17.40;;;16.00;;
57846;SDS011;43675;50.030;21.952;2023-05-16T11:35:12;16.70;;;15.50;;
57846;SDS011;43675;50.030;21.952;2023-05-16T11:37:40;17.20;;;15.70;;
57846;SDS011;43675;50.030;21.952;2023-05-16T11:40:08;16.40;;;15.20;;
57846;SDS011;43675;50.030;21.952;2023-05-16T11:42:37;15.90;;;14.80;;
57846;SDS011;43675;50.030;21.952;2023-05-16T11:45:06;16.60;;;15.40;;
57846;SDS011;43675;50.030;21.952;2023-05-16T11:47:38;16.30;;;15.10;;
57846;SDS011;43675;50.030;21.952;2023-05-16T11:50:13;16.20;;;14.90;;
57846;SDS011;43675;50.030;21.952;2023-05-16T11:52:44;16.50;;;15.20;;
57846;SDS011;43675;50.030;21.952;2023-05-16T11:55:15;16.30;;;15.00;;
57846;SDS011;43675;50.030;21.952;2023-05-16T11:57:41;16.80;;;15.00;;
57846;SDS011;43675;50.030;21.952;2023-05-16T12:00:15;16.20;;;14.90;;
57846;SDS011;43675;50.030;21.952;2023-05-16T12:02:44;16.50;;;15.00;;
57846;SDS011;43675;50.030;21.952;2023-05-16T12:05:11;16.50;;;15.00;;
57846;SDS011;43675;50.030;21.952;2023-05-16T12:07:38;16.70;;;15.00;;
57846;SDS011;43675;50.030;21.952;2023-05-16T12:12:33;16.40;;;15.00;;
57846;SDS011;43675;50.030;21.952;2023-05-16T12:15:02;16.90;;;15.50;;
57846;SDS011;43675;50.030;21.952;2023-05-16T12:17:29;17.10;;;15.60;;
57846;SDS011;43675;50.030;21.952;2023-05-16T12:19:56;16.20;;;14.80;;
57846;SDS011;43675;50.030;21.952;2023-05-16T12:22:23;16.70;;;15.40;;
57846;SDS011;43675;50.030;21.952;2023-05-16T12:24:50;16.20;;;14.90;;
57846;SDS011;43675;50.030;21.952;2023-05-16T12:27:22;16.30;;;15.00;;
57846;SDS011;43675;50.030;21.952;2023-05-16T12:29:50;16.70;;;15.40;;
57846;SDS011;43675;50.030;21.952;2023-05-16T12:32:20;16.20;;;14.90;;
57846;SDS011;43675;50.030;21.952;2023-05-16T12:34:50;16.10;;;14.90;;
57846;SDS011;43675;50.030;21.952;2023-05-16T12:37:19;16.50;;;15.10;;
57846;SDS011;43675;50.030;21.952;2023-05-16T12:39:46;14.90;;;13.80;;
57846;SDS011;43675;50.030;21.952;2023-05-16T12:42:13;15.20;;;14.20;;
57846;SDS011;43675;50.030;21.952;2023-05-16T12:44:40;15.80;;;14.70;;
57846;SDS011;43675;50.030;21.952;2023-05-16T12:47:10;16.00;;;14.80;;
57846;SDS011;43675;50.030;21.952;2023-05-16T12:49:47;16.70;;;15.50;;
57846;SDS011;43675;50.030;21.952;2023-05-16T12:52:17;16.60;;;15.40;;
57846;SDS011;43675;50.030;21.952;2023-05-16T12:54:45;15.90;;;14.70;;
57846;SDS011;43675;50.030;21.952;2023-05-16T12:57:13;16.40;;;15.10;;
57846;SDS011;43675;50.030;21.952;2023-05-16T12:59:40;17.20;;;15.80;;
57846;SDS011;43675;50.030;21.952;2023-05-16T13:02:06;16.90;;;15.60;;
57846;SDS011;43675;50.030;21.952;2023-05-16T13:04:33;17.00;;;15.80;;
57846;SDS011;43675;50.030;21.952;2023-05-16T13:07:00;16.30;;;15.00;;
57846;SDS011;43675;50.030;21.952;2023-05-16T13:09:26;16.70;;;15.40;;
57846;SDS011;43675;50.030;21.952;2023-05-16T13:11:53;16.60;;;15.30;;
57846;SDS011;43675;50.030;21.952;2023-05-16T13:14:19;16.50;;;15.30;;
57846;SDS011;43675;50.030;21.952;2023-05-16T13:16:46;17.60;;;16.40;;
57846;SDS011;43675;50.030;21.952;2023-05-16T13:19:12;17.30;;;16.10;;
57846;SDS011;43675;50.030;21.952;2023-05-16T13:21:39;18.10;;;16.80;;
57846;SDS011;43675;50.030;21.952;2023-05-16T13:24:05;17.40;;;16.00;;
57846;SDS011;43675;50.030;21.952;2023-05-16T13:26:32;17.60;;;16.30;;
57846;SDS011;43675;50.030;21.952;2023-05-16T13:28:58;17.30;;;16.00;;
57846;SDS011;43675;50.030;21.952;2023-05-16T13:31:25;17.40;;;16.10;;
57846;SDS011;43675;50.030;21.952;2023-05-16T13:33:51;17.30;;;15.90;;
57846;SDS011;43675;50.030;21.952;2023-05-16T13:36:18;16.80;;;15.40;;
57846;SDS011;43675;50.030;21.952;2023-05-16T13:38:44;16.50;;;15.30;;
57846;SDS011;43675;50.030;21.952;2023-05-16T13:41:11;17.00;;;15.70;;
57846;SDS011;43675;50.030;21.952;2023-05-16T13:43:37;16.70;;;15.40;;
57846;SDS011;43675;50.030;21.952;2023-05-16T13:46:04;17.20;;;15.80;;
57846;SDS011;43675;50.030;21.952;2023-05-16T13:48:31;16.20;;;15.10;;
57846;SDS011;43675;50.030;21.952;2023-05-16T13:50:57;16.50;;;15.30;;
57846;SDS011;43675;50.030;21.952;2023-05-16T13:53:24;16.50;;;15.20;;
57846;SDS011;43675;50.030;21.952;2023-05-16T13:55:50;16.90;;;15.50;;
57846;SDS011;43675;50.030;21.952;2023-05-16T13:58:17;17.10;;;15.70;;
57846;SDS011;43675;50.030;21.952;2023-05-16T14:00:43;17.30;;;15.80;;
57846;SDS011;43675;50.030;21.952;2023-05-16T14:03:10;17.40;;;15.80;;
57846;SDS011;43675;50.030;21.952;2023-05-16T14:05:36;16.70;;;15.10;;
57846;SDS011;43675;50.030;21.952;2023-05-16T14:08:03;16.70;;;15.40;;
57846;SDS011;43675;50.030;21.952;2023-05-16T14:10:30;16.60;;;15.40;;
57846;SDS011;43675;50.030;21.952;2023-05-16T14:12:56;16.70;;;15.50;;
57846;SDS011;43675;50.030;21.952;2023-05-16T14:15:23;16.50;;;15.20;;
57846;SDS011;43675;50.030;21.952;2023-05-16T14:17:49;17.00;;;15.40;;
57846;SDS011;43675;50.030;21.952;2023-05-16T14:20:16;16.70;;;15.40;;
57846;SDS011;43675;50.030;21.952;2023-05-16T14:22:42;16.60;;;15.30;;
57846;SDS011;43675;50.030;21.952;2023-05-16T14:25:09;16.40;;;15.10;;
57846;SDS011;43675;50.030;21.952;2023-05-16T14:27:35;17.00;;;15.40;;
57846;SDS011;43675;50.030;21.952;2023-05-16T14:30:02;17.00;;;15.60;;
57846;SDS011;43675;50.030;21.952;2023-05-16T14:32:29;16.70;;;15.30;;
57846;SDS011;43675;50.030;21.952;2023-05-16T14:34:56;16.70;;;15.10;;
57846;SDS011;43675;50.030;21.952;2023-05-16T14:37:22;16.50;;;15.30;;
57846;SDS011;43675;50.030;21.952;2023-05-16T14:39:49;15.90;;;14.70;;
57846;SDS011;43675;50.030;21.952;2023-05-16T14:42:15;15.80;;;14.60;;
57846;SDS011;43675;50.030;21.952;2023-05-16T14:44:42;16.80;;;15.30;;